Time;durP1;ratioP1;P1;durP2;ratioP2;P2;SDS_P1;SDS_P2;PMS_P1;PMS_P2;Temp;Humidity;BMP_temperature;BMP_pressure;BME280_temperature;BME280_humidity;BME280_pressure;Samples;Min_cycle;Max_cycle;Signal;HPM_P1;HPM_P2
2023/08/03 00:02:16;;;;;;;3.53;1.83;;;;;;;;;;4975618;28;20376;-72
2023/08/03 00:04:41;;;;;;;3.67;1.98;;;;;;;;;;4975624;28;20073;-66
2023/08/03 00:07:07;;;;;;;4.40;1.95;;;;;;;;;;4975666;28;20034;-66
2023/08/03 00:09:32;;;;;;;4.05;2.00;;;;;;;;;;4975715;28;20023;-67
2023/08/03 00:11:57;;;;;;;4.35;2.00;;;;;;;;;;4975329;28;20030;-66
2023/08/03 00:14:24;;;;;;;3.28;2.22;;;;;;;;;;4975169;28;20041;-72
2023/08/03 00:16:49;;;;;;;4.45;1.95;;;;;;;;;;4975563;28;20019;-71
2023/08/03 00:19:15;;;;;;;2.85;1.95;;;;;;;;;;4974071;28;20026;-65
2023/08/03 00:21:40;;;;;;;4.07;1.85;;;;;;;;;;4973432;28;20090;-66
2023/08/03 00:24:05;;;;;;;4.72;1.85;;;;;;;;;;4970768;28;20019;-66
2023/08/03 00:26:31;;;;;;;3.80;1.48;;;;;;;;;;4964086;28;20020;-66
2023/08/03 00:28:56;;;;;;;3.95;1.90;;;;;;;;;;4963254;28;20459;-66
2023/08/03 00:31:22;;;;;;;2.30;1.63;;;;;;;;;;4962375;28;20504;-66
2023/08/03 00:33:47;;;;;;;4.47;2.03;;;;;;;;;;4961791;28;20023;-64
2023/08/03 00:36:12;;;;;;;7.63;1.90;;;;;;;;;;4963203;28;20118;-67
2023/08/03 00:38:38;;;;;;;4.32;1.60;;;;;;;;;;4961752;28;20373;-74
2023/08/03 00:41:03;;;;;;;2.85;1.80;;;;;;;;;;4962219;28;20023;-66
2023/08/03 00:43:29;;;;;;;5.68;1.80;;;;;;;;;;4962870;28;20050;-73
2023/08/03 00:45:54;;;;;;;2.75;1.60;;;;;;;;;;4961068;28;20074;-73
2023/08/03 00:48:20;;;;;;;4.05;1.60;;;;;;;;;;4963592;28;20097;-69
2023/08/03 00:50:45;;;;;;;6.55;1.63;;;;;;;;;;4969731;28;20452;-68
2023/08/03 00:53:11;;;;;;;3.45;1.52;;;;;;;;;;4972966;28;20057;-65
2023/08/03 00:55:36;;;;;;;3.65;1.50;;;;;;;;;;4972877;28;20487;-69
2023/08/03 00:58:02;;;;;;;2.35;1.50;;;;;;;;;;4972552;28;20034;-68
2023/08/03 01:00:28;;;;;;;3.97;1.52;;;;;;;;;;4972771;28;20031;-66
2023/08/03 01:02:54;;;;;;;2.00;1.30;;;;;;;;;;4972897;28;20391;-71
2023/08/03 01:05:19;;;;;;;2.95;1.33;;;;;;;;;;4971695;28;20113;-66
2023/08/03 01:07:45;;;;;;;1.98;1.05;;;;;;;;;;4972876;28;20031;-66
2023/08/03 01:10:11;;;;;;;3.47;1.40;;;;;;;;;;4972721;28;20031;-68
2023/08/03 01:12:37;;;;;;;2.38;1.30;;;;;;;;;;4972411;28;20091;-74
2023/08/03 01:15:03;;;;;;;3.17;1.40;;;;;;;;;;4972668;28;20035;-65
2023/08/03 01:17:28;;;;;;;3.00;1.27;;;;;;;;;;4972789;28;20066;-67
2023/08/03 01:19:54;;;;;;;7.20;1.60;;;;;;;;;;4972522;28;20037;-72
2023/08/03 01:22:19;;;;;;;5.10;1.40;;;;;;;;;;4972488;28;20050;-67
2023/08/03 01:24:45;;;;;;;5.38;1.13;;;;;;;;;;4972461;28;20023;-68
2023/08/03 01:27:10;;;;;;;4.63;1.20;;;;;;;;;;4970900;28;20039;-69
2023/08/03 01:29:36;;;;;;;3.85;1.20;;;;;;;;;;4972459;28;20035;-65
2023/08/03 01:32:01;;;;;;;4.63;1.83;;;;;;;;;;4972225;28;20041;-65
2023/08/03 01:34:27;;;;;;;3.67;1.30;;;;;;;;;;4972291;28;20030;-67
2023/08/03 01:36:54;;;;;;;4.85;1.48;;;;;;;;;;4972337;28;20027;-67
2023/08/03 01:39:24;;;;;;;3.67;1.55;;;;;;;;;;4972327;28;20034;-69
2023/08/03 01:41:50;;;;;;;4.00;1.75;;;;;;;;;;4972029;28;20027;-67
2023/08/03 01:44:27;;;;;;;4.13;1.40;;;;;;;;;;4972391;28;20066;-73
2023/08/03 01:46:57;;;;;;;2.78;1.20;;;;;;;;;;4972402;28;20023;-65
2023/08/03 01:49:26;;;;;;;2.00;1.30;;;;;;;;;;4971835;28;20046;-66
2023/08/03 01:51:52;;;;;;;2.77;1.40;;;;;;;;;;4972079;28;20034;-68
2023/08/03 01:54:17;;;;;;;6.93;1.60;;;;;;;;;;4972191;28;20376;-68
2023/08/03 01:56:43;;;;;;;4.55;1.30;;;;;;;;;;4971918;28;20057;-72
2023/08/03 01:59:08;;;;;;;3.60;1.38;;;;;;;;;;4972227;28;20042;-67
2023/08/03 02:01:34;;;;;;;5.15;1.40;;;;;;;;;;4972136;28;20097;-64
2023/08/03 02:04:00;;;;;;;3.45;1.20;;;;;;;;;;4972003;28;20023;-65
2023/08/03 02:06:25;;;;;;;4.38;1.30;;;;;;;;;;4972051;28;20359;-67
2023/08/03 02:08:50;;;;;;;5.20;1.50;;;;;;;;;;4971851;28;20034;-65
2023/08/03 02:11:16;;;;;;;3.55;1.42;;;;;;;;;;4971695;28;20476;-65
2023/08/03 02:13:41;;;;;;;4.65;1.40;;;;;;;;;;4971863;28;20039;-68
2023/08/03 02:16:10;;;;;;;3.97;1.88;;;;;;;;;;4973919;28;20105;-74
2023/08/03 02:18:37;;;;;;;16.70;15.27;;;;;;;;;;4975743;28;20039;-65
2023/08/03 02:21:03;;;;;;;5.47;1.83;;;;;;;;;;4975742;28;20353;-68
2023/08/03 02:23:29;;;;;;;7.78;1.63;;;;;;;;;;4975847;28;20023;-69
2023/08/03 02:25:54;;;;;;;2.83;1.70;;;;;;;;;;4975469;28;20039;-71
2023/08/03 02:28:20;;;;;;;12.25;1.50;;;;;;;;;;4975632;28;20022;-74
2023/08/03 02:30:45;;;;;;;3.78;1.30;;;;;;;;;;4975665;28;20062;-65
2023/08/03 02:33:11;;;;;;;3.22;1.67;;;;;;;;;;4975568;28;20042;-68
2023/08/03 02:35:39;;;;;;;4.72;1.55;;;;;;;;;;4975462;28;20031;-73
2023/08/03 02:38:07;;;;;;;3.58;1.90;;;;;;;;;;4975591;28;20433;-66
2023/08/03 02:40:33;;;;;;;2.97;1.40;;;;;;;;;;4975161;28;20065;-65
2023/08/03 02:42:58;;;;;;;5.88;1.73;;;;;;;;;;4975415;28;20046;-66
2023/08/03 02:45:24;;;;;;;2.80;1.45;;;;;;;;;;4975310;28;20038;-69
2023/08/03 02:47:49;;;;;;;4.10;1.67;;;;;;;;;;4975002;28;20065;-72
2023/08/03 02:50:15;;;;;;;4.90;1.77;;;;;;;;;;4974851;28;20038;-68
2023/08/03 02:52:40;;;;;;;6.78;1.40;;;;;;;;;;4975228;28;20082;-67
2023/08/03 02:55:06;;;;;;;4.13;1.40;;;;;;;;;;4974934;28;20034;-69
2023/08/03 02:57:31;;;;;;;4.22;1.40;;;;;;;;;;4975138;28;20492;-65
2023/08/03 02:59:57;;;;;;;3.88;1.40;;;;;;;;;;4975014;28;20404;-65
2023/08/03 03:02:22;;;;;;;5.68;1.45;;;;;;;;;;4975140;28;20399;-65
2023/08/03 03:04:49;;;;;;;5.32;1.70;;;;;;;;;;4973279;28;20027;-69
2023/08/03 03:07:15;;;;;;;2.88;1.55;;;;;;;;;;4974889;28;20113;-65
2023/08/03 03:09:40;;;;;;;4.90;1.55;;;;;;;;;;4974635;28;20099;-68
2023/08/03 03:12:07;;;;;;;4.90;1.40;;;;;;;;;;4974845;28;20034;-69
2023/08/03 03:14:32;;;;;;;2.63;1.30;;;;;;;;;;4974822;28;20026;-67
2023/08/03 03:16:57;;;;;;;4.75;2.25;;;;;;;;;;4974864;28;20097;-72
2023/08/03 03:19:23;;;;;;;2.53;1.30;;;;;;;;;;4974859;28;20035;-68
2023/08/03 03:21:48;;;;;;;2.92;1.33;;;;;;;;;;4974618;28;20018;-65
2023/08/03 03:24:14;;;;;;;4.15;1.45;;;;;;;;;;4974210;28;20154;-65
2023/08/03 03:26:39;;;;;;;3.72;1.55;;;;;;;;;;4973572;28;20384;-66
2023/08/03 03:29:04;;;;;;;4.55;1.50;;;;;;;;;;4974341;28;20027;-75
2023/08/03 03:31:30;;;;;;;3.08;1.60;;;;;;;;;;4974568;28;20036;-71
2023/08/03 03:33:55;;;;;;;4.10;1.70;;;;;;;;;;4974385;28;20440;-69
2023/08/03 03:36:21;;;;;;;2.35;1.63;;;;;;;;;;4974363;28;20567;-65
2023/08/03 03:38:46;;;;;;;7.35;1.70;;;;;;;;;;4974220;28;20031;-67
2023/08/03 03:41:11;;;;;;;8.32;2.10;;;;;;;;;;4974181;28;20031;-65
2023/08/03 03:43:37;;;;;;;7.65;2.13;;;;;;;;;;4974258;28;20026;-67
2023/08/03 03:46:02;;;;;;;8.95;1.70;;;;;;;;;;4973957;28;20062;-69
2023/08/03 03:48:28;;;;;;;4.03;1.52;;;;;;;;;;4973918;28;20560;-65
2023/08/03 03:50:54;;;;;;;5.10;1.80;;;;;;;;;;4973804;28;20499;-74
2023/08/03 03:53:19;;;;;;;5.70;1.58;;;;;;;;;;4974039;28;20069;-65
2023/08/03 03:55:45;;;;;;;4.38;1.70;;;;;;;;;;4973890;28;20417;-69
2023/08/03 03:58:10;;;;;;;3.17;1.45;;;;;;;;;;4974058;28;20042;-66
2023/08/03 04:00:40;;;;;;;5.13;1.80;;;;;;;;;;4974012;28;20065;-64
2023/08/03 04:03:08;;;;;;;2.55;1.70;;;;;;;;;;4973915;28;20093;-64
2023/08/03 04:05:37;;;;;;;5.32;1.98;;;;;;;;;;4973845;28;20134;-69
2023/08/03 04:08:03;;;;;;;3.78;1.67;;;;;;;;;;4973655;28;20034;-71
2023/08/03 04:10:29;;;;;;;3.88;1.73;;;;;;;;;;4973931;28;20059;-65
2023/08/03 04:12:55;;;;;;;8.48;1.65;;;;;;;;;;4973838;28;20085;-67
2023/08/03 04:15:20;;;;;;;3.80;1.70;;;;;;;;;;4973775;28;20038;-67
2023/08/03 04:17:48;;;;;;;3.72;1.75;;;;;;;;;;4973822;28;20090;-65
2023/08/03 04:20:14;;;;;;;6.63;1.33;;;;;;;;;;4973936;28;20054;-71
2023/08/03 04:22:39;;;;;;;2.40;1.30;;;;;;;;;;4973930;28;20428;-67
2023/08/03 04:25:05;;;;;;;3.75;1.73;;;;;;;;;;4973073;28;20033;-69
2023/08/03 04:27:30;;;;;;;3.88;1.52;;;;;;;;;;4973444;28;20031;-64
2023/08/03 04:29:56;;;;;;;5.28;1.55;;;;;;;;;;4973382;28;20046;-65
2023/08/03 04:32:21;;;;;;;6.60;1.65;;;;;;;;;;4973285;28;20034;-65
2023/08/03 04:34:47;;;;;;;5.50;1.80;;;;;;;;;;4973454;28;20051;-70
2023/08/03 04:37:12;;;;;;;4.22;1.63;;;;;;;;;;4973064;28;20105;-71
2023/08/03 04:39:38;;;;;;;5.32;1.67;;;;;;;;;;4972809;28;20081;-65
2023/08/03 04:42:03;;;;;;;5.93;1.58;;;;;;;;;;4973065;28;20025;-67
2023/08/03 04:44:29;;;;;;;3.28;1.30;;;;;;;;;;4973133;28;20063;-64
2023/08/03 04:46:54;;;;;;;3.53;1.40;;;;;;;;;;4973422;28;20023;-64
2023/08/03 04:49:19;;;;;;;4.18;1.52;;;;;;;;;;4972839;28;20038;-65
2023/08/03 04:51:45;;;;;;;6.47;1.80;;;;;;;;;;4953406;28;20047;-64
2023/08/03 04:54:13;;;;;;;4.25;1.90;;;;;;;;;;4953456;28;20429;-65
2023/08/03 04:56:38;;;;;;;4.05;1.50;;;;;;;;;;4953387;28;20118;-64
2023/08/03 04:59:04;;;;;;;6.15;1.70;;;;;;;;;;4953581;28;20463;-65
2023/08/03 05:01:29;;;;;;;3.80;1.60;;;;;;;;;;4953543;28;20500;-66
2023/08/03 05:03:55;;;;;;;3.13;1.58;;;;;;;;;;4956948;28;20118;-64
2023/08/03 05:06:20;;;;;;;7.25;1.30;;;;;;;;;;4972349;28;20266;-64
2023/08/03 05:08:46;;;;;;;3.33;1.40;;;;;;;;;;4972544;28;20030;-64
2023/08/03 05:11:12;;;;;;;3.78;1.40;;;;;;;;;;4972943;28;20066;-71
2023/08/03 05:13:38;;;;;;;1.45;1.10;;;;;;;;;;4972465;28;20383;-68
2023/08/03 05:16:03;;;;;;;6.78;1.60;;;;;;;;;;4972337;28;20027;-65
2023/08/03 05:18:29;;;;;;;4.30;1.42;;;;;;;;;;4972549;28;20023;-66
2023/08/03 05:20:54;;;;;;;4.07;1.45;;;;;;;;;;4972317;28;20026;-67
2023/08/03 05:23:20;;;;;;;3.83;1.50;;;;;;;;;;4972334;28;20082;-67
2023/08/03 05:25:48;;;;;;;4.28;1.55;;;;;;;;;;4972159;28;20092;-79
2023/08/03 05:28:13;;;;;;;5.07;1.70;;;;;;;;;;4972337;28;20034;-65
2023/08/03 05:30:39;;;;;;;3.35;1.20;;;;;;;;;;4972546;28;20023;-75
2023/08/03 05:33:04;;;;;;;2.90;1.48;;;;;;;;;;4972248;28;20034;-70
2023/08/03 05:35:30;;;;;;;3.03;1.33;;;;;;;;;;4971916;28;20027;-65
2023/08/03 05:37:55;;;;;;;4.63;2.30;;;;;;;;;;4972090;28;20041;-64
2023/08/03 05:40:21;;;;;;;3.05;1.20;;;;;;;;;;4972141;28;20109;-66
2023/08/03 05:42:47;;;;;;;2.63;1.35;;;;;;;;;;4972158;28;20063;-69
2023/08/03 05:45:32;;;;;;;3.92;1.58;;;;;;;;;;4971886;28;20442;-64
2023/08/03 05:47:58;;;;;;;1.98;1.30;;;;;;;;;;4971412;28;20033;-69
2023/08/03 05:50:24;;;;;;;5.80;1.20;;;;;;;;;;4971302;28;20030;-76
2023/08/03 05:52:50;;;;;;;4.75;1.20;;;;;;;;;;4972029;28;20033;-77
2023/08/03 05:55:16;;;;;;;5.13;1.27;;;;;;;;;;4971925;28;20022;-76
2023/08/03 05:57:41;;;;;;;3.75;1.38;;;;;;;;;;4970598;28;20495;-76
2023/08/03 06:00:15;;;;;;;4.43;1.50;;;;;;;;;;4971880;28;20027;-74
2023/08/03 06:02:42;;;;;;;3.42;1.60;;;;;;;;;;4971806;28;20054;-79
2023/08/03 06:05:32;;;;;;;7.97;1.60;;;;;;;;;;4971702;28;20446;-81
2023/08/03 06:07:57;;;;;;;2.50;1.30;;;;;;;;;;4971847;28;20105;-81
2023/08/03 06:10:23;;;;;;;3.67;1.38;;;;;;;;;;4971788;28;20481;-83
2023/08/03 06:12:48;;;;;;;5.50;1.38;;;;;;;;;;4971405;28;20031;-76
2023/08/03 06:15:16;;;;;;;4.47;1.55;;;;;;;;;;4971655;28;20089;-67
2023/08/03 06:17:42;;;;;;;5.82;1.40;;;;;;;;;;4971521;28;20671;-69
2023/08/03 06:20:14;;;;;;;7.35;1.35;;;;;;;;;;4971802;28;20030;-80
2023/08/03 06:22:40;;;;;;;2.83;1.27;;;;;;;;;;4971724;28;20382;-82
2023/08/03 06:25:08;;;;;;;10.07;2.28;;;;;;;;;;4971362;28;20031;-73
2023/08/03 06:27:33;;;;;;;6.65;1.73;;;;;;;;;;4971571;28;20062;-80
2023/08/03 06:29:59;;;;;;;3.30;1.30;;;;;;;;;;4971605;28;20053;-80
2023/08/03 06:32:29;;;;;;;7.55;1.92;;;;;;;;;;4971439;28;20093;-78
2023/08/03 06:34:56;;;;;;;6.18;1.23;;;;;;;;;;4971598;28;20534;-81
2023/08/03 06:37:21;;;;;;;4.78;1.45;;;;;;;;;;4971594;28;20034;-81
2023/08/03 06:39:50;;;;;;;4.70;1.65;;;;;;;;;;4971499;28;20054;-76
2023/08/03 06:42:16;;;;;;;7.60;2.13;;;;;;;;;;4971581;28;20081;-75
2023/08/03 06:44:41;;;;;;;7.75;1.50;;;;;;;;;;4971349;28;20167;-77
2023/08/03 06:47:06;;;;;;;4.47;1.35;;;;;;;;;;4971149;28;20394;-79
2023/08/03 06:49:32;;;;;;;5.78;1.48;;;;;;;;;;4970872;28;20054;-73
2023/08/03 06:51:58;;;;;;;8.40;1.70;;;;;;;;;;4978324;28;20039;-79
2023/08/03 06:54:23;;;;;;;5.10;1.63;;;;;;;;;;4993715;28;20105;-75
2023/08/03 06:56:49;;;;;;;4.45;1.40;;;;;;;;;;4984784;28;20380;-75
2023/08/03 06:59:20;;;;;;;6.47;1.40;;;;;;;;;;4975415;28;20026;-77
2023/08/03 07:01:46;;;;;;;4.25;1.25;;;;;;;;;;4977644;28;20037;-81
2023/08/03 07:04:12;;;;;;;11.65;1.50;;;;;;;;;;4983492;28;20082;-77
2023/08/03 07:06:37;;;;;;;8.32;1.63;;;;;;;;;;4980818;28;20038;-73
2023/08/03 07:09:03;;;;;;;3.92;1.25;;;;;;;;;;4983587;28;20030;-76
2023/08/03 07:11:28;;;;;;;3.90;1.55;;;;;;;;;;4984002;28;20027;-69
2023/08/03 07:13:53;;;;;;;3.55;1.40;;;;;;;;;;4983349;28;20027;-72
2023/08/03 07:16:21;;;;;;;5.25;1.60;;;;;;;;;;4983447;28;20054;-74
2023/08/03 07:18:46;;;;;;;5.28;1.27;;;;;;;;;;4982973;28;20546;-80
2023/08/03 07:21:11;;;;;;;4.93;1.42;;;;;;;;;;4979191;28;20038;-78
2023/08/03 07:23:37;;;;;;;7.53;2.00;;;;;;;;;;4980496;28;20089;-76
2023/08/03 07:26:02;;;;;;;5.05;1.58;;;;;;;;;;4977710;28;20066;-76
2023/08/03 07:28:28;;;;;;;7.10;1.50;;;;;;;;;;4976057;28;20030;-78
2023/08/03 07:30:53;;;;;;;6.93;1.73;;;;;;;;;;4978470;28;20075;-81
2023/08/03 07:33:19;;;;;;;4.20;1.30;;;;;;;;;;4978630;28;20321;-81
2023/08/03 07:35:44;;;;;;;4.07;1.33;;;;;;;;;;4978841;28;20027;-68
2023/08/03 07:38:09;;;;;;;8.70;1.40;;;;;;;;;;4979779;28;20031;-80
2023/08/03 07:40:35;;;;;;;5.20;1.45;;;;;;;;;;4978706;28;20029;-74
2023/08/03 07:43:00;;;;;;;7.07;1.75;;;;;;;;;;4979205;28;20026;-75
2023/08/03 07:45:26;;;;;;;5.43;1.38;;;;;;;;;;4970461;28;20027;-69
2023/08/03 07:47:51;;;;;;;6.82;1.55;;;;;;;;;;4958291;28;20047;-66
2023/08/03 07:50:17;;;;;;;4.75;1.25;;;;;;;;;;4970497;28;20090;-78
2023/08/03 07:52:42;;;;;;;6.47;1.38;;;;;;;;;;4976588;28;20379;-65
2023/08/03 07:55:08;;;;;;;8.13;1.58;;;;;;;;;;4976374;28;20093;-80
2023/08/03 07:57:35;;;;;;;4.78;1.38;;;;;;;;;;4976739;28;20495;-80
2023/08/03 08:00:00;;;;;;;4.30;1.38;;;;;;;;;;4975937;28;20035;-75
2023/08/03 08:02:26;;;;;;;5.88;1.38;;;;;;;;;;4976128;28;20544;-74
2023/08/03 08:04:51;;;;;;;3.17;1.15;;;;;;;;;;4975511;28;20027;-73
2023/08/03 08:07:18;;;;;;;6.72;1.65;;;;;;;;;;4975889;28;20034;-80
2023/08/03 08:09:43;;;;;;;5.45;1.20;;;;;;;;;;4975679;28;20015;-71
2023/08/03 08:12:09;;;;;;;4.78;1.40;;;;;;;;;;4975461;28;20034;-77
2023/08/03 08:14:34;;;;;;;6.25;1.40;;;;;;;;;;4974806;28;20077;-68
2023/08/03 08:17:00;;;;;;;2.78;1.08;;;;;;;;;;4975443;28;20034;-66
2023/08/03 08:19:25;;;;;;;4.60;1.10;;;;;;;;;;4975522;28;20038;-67
2023/08/03 08:21:50;;;;;;;6.38;1.08;;;;;;;;;;4975233;28;20050;-67
2023/08/03 08:24:16;;;;;;;4.00;1.20;;;;;;;;;;4975163;28;20027;-69
2023/08/03 08:26:41;;;;;;;5.35;1.35;;;;;;;;;;4975099;28;20034;-73
2023/08/03 08:29:07;;;;;;;4.18;1.10;;;;;;;;;;4974994;28;20099;-71
2023/08/03 08:31:32;;;;;;;5.28;1.40;;;;;;;;;;4975347;28;20101;-75
2023/08/03 08:33:58;;;;;;;4.28;0.93;;;;;;;;;;4975041;28;20435;-70
2023/08/03 08:36:24;;;;;;;6.15;1.05;;;;;;;;;;4975051;28;20040;-66
2023/08/03 08:38:49;;;;;;;4.63;0.90;;;;;;;;;;4974988;28;20026;-66
2023/08/03 08:41:15;;;;;;;5.35;1.13;;;;;;;;;;4975017;28;20022;-66
2023/08/03 08:43:41;;;;;;;4.55;1.20;;;;;;;;;;4974529;28;20023;-72
2023/08/03 08:46:06;;;;;;;3.90;0.90;;;;;;;;;;4974776;28;20039;-76
2023/08/03 08:48:34;;;;;;;4.35;0.90;;;;;;;;;;4974580;28;20447;-73
2023/08/03 08:51:03;;;;;;;5.63;0.90;;;;;;;;;;4972807;28;20174;-76
2023/08/03 08:53:29;;;;;;;7.30;1.08;;;;;;;;;;4974679;28;20141;-66
2023/08/03 08:55:54;;;;;;;3.17;0.90;;;;;;;;;;4974619;28;20464;-76
2023/08/03 08:58:20;;;;;;;3.22;0.88;;;;;;;;;;4974537;28;20053;-74
2023/08/03 09:00:47;;;;;;;4.40;1.20;;;;;;;;;;4974556;28;20578;-76
2023/08/03 09:03:14;;;;;;;4.70;0.95;;;;;;;;;;4974239;28;20023;-76
2023/08/03 09:05:39;;;;;;;6.30;1.00;;;;;;;;;;4974377;28;20023;-75
2023/08/03 09:08:11;;;;;;;3.85;1.23;;;;;;;;;;4974317;28;20436;-75
2023/08/03 09:10:55;;;;;;;4.07;1.08;;;;;;;;;;4989032;28;20133;-76
2023/08/03 09:13:31;;;;;;;4.97;1.17;;;;;;;;;;4981516;28;20027;-66
2023/08/03 09:15:57;;;;;;;3.70;0.90;;;;;;;;;;4974266;28;20086;-74
2023/08/03 09:18:27;;;;;;;4.60;1.20;;;;;;;;;;4974339;28;20536;-68
2023/08/03 09:21:12;;;;;;;5.27;1.13;;;;;;;;;;4973997;28;20026;-68
2023/08/03 09:23:37;;;;;;;14.40;1.15;;;;;;;;;;4974235;28;20039;-69
2023/08/03 09:26:06;;;;;;;3.05;1.08;;;;;;;;;;4972979;28;20031;-70
2023/08/03 09:28:43;;;;;;;5.72;1.00;;;;;;;;;;4974179;28;20109;-72
2023/08/03 09:31:20;;;;;;;4.18;1.17;;;;;;;;;;4974030;28;20054;-72
2023/08/03 09:33:54;;;;;;;6.55;1.20;;;;;;;;;;4974101;28;20031;-76
2023/08/03 09:36:21;;;;;;;6.90;1.13;;;;;;;;;;4973914;28;20053;-70
2023/08/03 09:38:47;;;;;;;2.53;1.00;;;;;;;;;;4973961;28;20031;-70
2023/08/03 09:41:12;;;;;;;2.13;0.77;;;;;;;;;;4973641;28;20495;-72
2023/08/03 09:43:42;;;;;;;3.60;0.90;;;;;;;;;;4973708;28;20027;-75
2023/08/03 09:46:08;;;;;;;10.30;1.17;;;;;;;;;;4973743;28;20163;-71
2023/08/03 09:48:33;;;;;;;5.93;0.90;;;;;;;;;;4973655;28;20125;-70
2023/08/03 09:51:00;;;;;;;4.22;0.85;;;;;;;;;;4973346;28;20038;-78
2023/08/03 09:53:30;;;;;;;6.55;1.00;;;;;;;;;;4973757;28;20495;-65
2023/08/03 09:56:03;;;;;;;4.07;1.00;;;;;;;;;;4973438;28;20034;-77
2023/08/03 09:58:47;;;;;;;2.25;0.82;;;;;;;;;;4973807;28;20077;-78
2023/08/03 10:01:17;;;;;;;6.18;1.20;;;;;;;;;;4973640;28;20472;-77
2023/08/03 10:03:46;;;;;;;5.90;1.00;;;;;;;;;;4973502;28;20029;-78
2023/08/03 10:06:14;;;;;;;4.80;1.10;;;;;;;;;;4973363;28;20035;-66
2023/08/03 10:08:46;;;;;;;5.45;1.15;;;;;;;;;;4973318;28;20053;-78
2023/08/03 10:11:12;;;;;;;3.72;1.30;;;;;;;;;;4973487;28;20042;-78
2023/08/03 10:13:44;;;;;;;4.05;0.98;;;;;;;;;;4973363;28;20023;-77
2023/08/03 10:16:10;;;;;;;3.55;1.00;;;;;;;;;;4973372;28;20027;-76
2023/08/03 10:18:37;;;;;;;3.72;0.80;;;;;;;;;;4973601;28;20043;-73
2023/08/03 10:21:03;;;;;;;4.80;0.90;;;;;;;;;;4973322;28;20566;-76
2023/08/03 10:23:28;;;;;;;7.68;0.85;;;;;;;;;;4973350;28;20035;-75
2023/08/03 10:25:58;;;;;;;4.75;0.80;;;;;;;;;;4973288;28;20479;-76
2023/08/03 10:28:43;;;;;;;8.25;1.92;;;;;;;;;;4971881;28;20407;-71
2023/08/03 10:31:18;;;;;;;2.75;0.82;;;;;;;;;;4973270;28;20061;-70
2023/08/03 10:33:46;;;;;;;2.20;0.77;;;;;;;;;;4971585;28;20093;-73
2023/08/03 10:39:16;;;;;;;7.60;1.27;;;;;;;;;;4972759;28;20129;-76
2023/08/03 10:41:46;;;;;;;2.92;0.75;;;;;;;;;;4972555;28;20026;-76
2023/08/03 10:44:12;;;;;;;3.35;1.10;;;;;;;;;;4977820;28;20027;-68
2023/08/03 10:46:41;;;;;;;2.80;0.82;;;;;;;;;;4976163;28;20118;-75
2023/08/03 10:49:22;;;;;;;3.47;1.00;;;;;;;;;;4976677;28;20043;-75
2023/08/03 10:52:13;;;;;;;3.72;0.90;;;;;;;;;;4957567;28;20047;-75
2023/08/03 10:54:39;;;;;;;4.50;0.90;;;;;;;;;;4970041;28;20031;-71
2023/08/03 10:57:06;;;;;;;3.88;1.20;;;;;;;;;;4976713;28;20030;-74
2023/08/03 10:59:52;;;;;;;1.42;0.82;;;;;;;;;;4977031;28;20384;-71
2023/08/03 11:02:25;;;;;;;2.38;0.75;;;;;;;;;;4976886;28;20031;-72
2023/08/03 11:04:55;;;;;;;2.15;0.70;;;;;;;;;;4976596;28;20070;-73
2023/08/03 11:07:37;;;;;;;2.25;0.75;;;;;;;;;;4976547;28;20097;-70
2023/08/03 11:10:06;;;;;;;1.65;0.70;;;;;;;;;;4976758;28;20027;-70
2023/08/03 11:12:32;;;;;;;1.20;0.70;;;;;;;;;;4976434;28;20027;-68
2023/08/03 11:14:59;;;;;;;1.95;0.70;;;;;;;;;;4976504;28;20030;-72
2023/08/03 11:17:26;;;;;;;4.13;1.00;;;;;;;;;;4975200;28;20033;-70
2023/08/03 11:19:53;;;;;;;2.42;0.90;;;;;;;;;;4976071;28;20082;-71
2023/08/03 11:22:21;;;;;;;1.92;1.00;;;;;;;;;;4976277;28;20038;-70
2023/08/03 11:24:48;;;;;;;3.95;0.82;;;;;;;;;;4975183;28;20034;-71
2023/08/03 11:27:14;;;;;;;4.40;1.08;;;;;;;;;;4976501;28;20049;-71
2023/08/03 11:29:39;;;;;;;3.90;1.00;;;;;;;;;;4976387;28;20480;-69
2023/08/03 11:32:05;;;;;;;4.63;0.98;;;;;;;;;;4976328;28;20110;-74
2023/08/03 11:34:32;;;;;;;3.03;0.82;;;;;;;;;;4976415;28;20117;-73
2023/08/03 11:36:58;;;;;;;2.55;0.88;;;;;;;;;;4976147;28;20114;-67
2023/08/03 11:39:23;;;;;;;3.20;0.90;;;;;;;;;;4976286;28;20512;-74
2023/08/03 11:41:51;;;;;;;4.15;1.02;;;;;;;;;;4976068;28;20031;-73
2023/08/03 11:44:21;;;;;;;1.55;0.82;;;;;;;;;;4976111;28;20035;-72
2023/08/03 11:46:49;;;;;;;2.63;0.70;;;;;;;;;;4975930;28;20038;-67
2023/08/03 11:49:15;;;;;;;4.22;1.70;;;;;;;;;;4973702;28;20039;-69
2023/08/03 11:51:41;;;;;;;7.45;2.30;;;;;;;;;;4975576;28;20031;-70
2023/08/03 11:54:09;;;;;;;3.78;1.20;;;;;;;;;;4975712;28;20019;-68
2023/08/03 11:56:38;;;;;;;2.53;0.90;;;;;;;;;;4975947;28;20022;-69
2023/08/03 11:59:09;;;;;;;2.67;1.00;;;;;;;;;;4975934;28;20030;-69
2023/08/03 12:01:47;;;;;;;1.70;0.80;;;;;;;;;;4975774;28;20042;-65
2023/08/03 12:04:14;;;;;;;1.38;0.60;;;;;;;;;;4975760;28;20031;-68
2023/08/03 12:06:46;;;;;;;4.18;0.70;;;;;;;;;;4975464;28;20045;-70
2023/08/03 12:09:24;;;;;;;2.25;0.90;;;;;;;;;;4975659;28;20046;-67
2023/08/03 12:11:50;;;;;;;3.17;0.80;;;;;;;;;;4975482;28;20026;-67
2023/08/03 12:14:17;;;;;;;1.40;0.60;;;;;;;;;;4975572;28;20033;-70
2023/08/03 12:16:42;;;;;;;2.78;0.82;;;;;;;;;;4974241;28;20384;-68
2023/08/03 12:19:08;;;;;;;2.63;0.80;;;;;;;;;;4975600;28;20079;-65
2023/08/03 12:21:40;;;;;;;3.42;0.80;;;;;;;;;;4975291;28;20026;-67
2023/08/03 12:24:09;;;;;;;4.20;0.80;;;;;;;;;;4975301;28;20026;-66
2023/08/03 12:26:39;;;;;;;1.98;0.73;;;;;;;;;;4975109;28;20118;-71
2023/08/03 12:29:04;;;;;;;2.00;0.70;;;;;;;;;;4974969;28;20038;-70
2023/08/03 12:31:31;;;;;;;2.00;1.08;;;;;;;;;;4979232;28;20031;-66
2023/08/03 12:33:57;;;;;;;2.05;0.80;;;;;;;;;;4993016;28;20018;-71
2023/08/03 12:36:23;;;;;;;5.32;0.63;;;;;;;;;;4978517;28;20101;-69
2023/08/03 12:38:50;;;;;;;3.67;0.70;;;;;;;;;;4974982;28;20515;-67
2023/08/03 12:41:18;;;;;;;1.75;0.70;;;;;;;;;;4974991;28;20045;-69
2023/08/03 12:43:44;;;;;;;1.20;0.60;;;;;;;;;;4974768;28;20081;-70
2023/08/03 12:46:09;;;;;;;2.33;0.65;;;;;;;;;;4974669;28;20151;-68
2023/08/03 12:48:34;;;;;;;2.88;0.65;;;;;;;;;;4974400;28;20093;-69
2023/08/03 12:51:00;;;;;;;1.35;0.68;;;;;;;;;;4970124;28;20035;-69
2023/08/03 12:53:26;;;;;;;1.02;0.63;;;;;;;;;;4966627;28;20543;-66
2023/08/03 12:55:51;;;;;;;3.40;0.98;;;;;;;;;;4974546;28;20033;-68
2023/08/03 12:58:17;;;;;;;2.97;1.08;;;;;;;;;;4974747;28;20023;-71
2023/08/03 13:00:44;;;;;;;2.58;0.63;;;;;;;;;;4974648;28;20034;-67
2023/08/03 13:03:10;;;;;;;1.77;0.60;;;;;;;;;;4974364;28;20747;-68
2023/08/03 13:05:35;;;;;;;3.90;0.80;;;;;;;;;;4974435;28;20063;-70
2023/08/03 13:08:01;;;;;;;2.22;0.70;;;;;;;;;;4974487;28;20031;-69
2023/08/03 13:10:26;;;;;;;2.67;0.70;;;;;;;;;;4974604;28;20089;-72
2023/08/03 13:12:51;;;;;;;1.65;0.70;;;;;;;;;;4974039;28;20031;-71
2023/08/03 13:15:17;;;;;;;1.88;0.65;;;;;;;;;;4974317;28;20019;-73
2023/08/03 13:17:42;;;;;;;2.55;0.82;;;;;;;;;;4974102;28;20619;-72
2023/08/03 13:20:09;;;;;;;2.38;0.80;;;;;;;;;;4974231;28;20365;-69
2023/08/03 13:22:34;;;;;;;1.60;0.60;;;;;;;;;;4974375;28;20325;-67
2023/08/03 13:25:01;;;;;;;2.00;0.80;;;;;;;;;;4974110;28;20085;-74
2023/08/03 13:27:27;;;;;;;1.38;0.73;;;;;;;;;;4974162;28;20034;-67
2023/08/03 13:29:53;;;;;;;3.33;0.90;;;;;;;;;;4973681;28;20392;-67
2023/08/03 13:32:19;;;;;;;1.95;0.63;;;;;;;;;;4973755;28;20433;-68
2023/08/03 13:34:45;;;;;;;4.10;0.70;;;;;;;;;;4973808;28;20035;-71
2023/08/03 13:37:11;;;;;;;1.90;0.80;;;;;;;;;;4973989;28;20114;-70
2023/08/03 13:39:37;;;;;;;4.00;0.50;;;;;;;;;;4975261;28;20031;-72
2023/08/03 13:42:03;;;;;;;3.65;0.80;;;;;;;;;;4976394;28;20034;-70
2023/08/03 13:44:28;;;;;;;1.50;0.70;;;;;;;;;;4972403;28;20029;-71
2023/08/03 13:46:54;;;;;;;2.75;0.90;;;;;;;;;;4974126;28;20049;-72
2023/08/03 13:49:20;;;;;;;2.60;0.90;;;;;;;;;;4974117;28;20130;-66
2023/08/03 13:51:45;;;;;;;3.13;0.80;;;;;;;;;;4976715;28;20125;-71
2023/08/03 13:54:11;;;;;;;3.20;0.80;;;;;;;;;;4985525;28;20041;-70
2023/08/03 13:56:38;;;;;;;5.30;1.00;;;;;;;;;;4982237;28;20053;-69
2023/08/03 13:59:04;;;;;;;3.85;0.93;;;;;;;;;;4972707;28;20023;-67
2023/08/03 14:01:36;;;;;;;8.35;1.20;;;;;;;;;;4974550;28;20064;-75
2023/08/03 14:04:02;;;;;;;5.57;1.60;;;;;;;;;;4974532;28;20027;-75
2023/08/03 14:06:27;;;;;;;15.02;1.20;;;;;;;;;;4974658;28;20035;-73
2023/08/03 14:08:53;;;;;;;7.57;1.63;;;;;;;;;;4976621;28;20042;-74
2023/08/03 14:11:18;;;;;;;4.13;1.40;;;;;;;;;;4976879;28;20069;-75
2023/08/03 14:13:44;;;;;;;4.80;1.23;;;;;;;;;;4980899;28;20422;-72
2023/08/03 14:16:10;;;;;;;3.97;1.25;;;;;;;;;;4981111;28;20022;-71
2023/08/03 14:18:38;;;;;;;5.70;1.23;;;;;;;;;;4982084;28;20026;-75
2023/08/03 14:21:04;;;;;;;5.28;1.40;;;;;;;;;;4968125;28;20047;-72
2023/08/03 14:23:30;;;;;;;4.93;2.13;;;;;;;;;;4960931;28;20042;-71
2023/08/03 14:25:56;;;;;;;4.57;1.00;;;;;;;;;;4960426;28;20043;-66
2023/08/03 14:28:21;;;;;;;4.53;1.27;;;;;;;;;;4960819;28;20427;-72
2023/08/03 14:30:47;;;;;;;4.65;1.20;;;;;;;;;;4960601;29;20031;-73
2023/08/03 14:33:12;;;;;;;2.05;1.20;;;;;;;;;;4961712;28;20147;-69
2023/08/03 14:35:38;;;;;;;2.50;0.75;;;;;;;;;;4980106;28;20117;-76
2023/08/03 14:38:04;;;;;;;2.17;1.30;;;;;;;;;;4979903;28;20031;-70
2023/08/03 14:40:32;;;;;;;2.42;0.80;;;;;;;;;;4979986;28;20081;-67
2023/08/03 14:42:58;;;;;;;2.35;0.98;;;;;;;;;;4979842;28;20062;-74
2023/08/03 14:45:27;;;;;;;3.22;0.80;;;;;;;;;;4979545;28;20075;-68